sensor_id;sensor_type;location;lat;lon;timestamp;pressure;altitude;pressure_sealevel;temperature;humidity
13434;BME280;6789;47.678;9.158;2023-05-08T00:01:53;97050.91;;;14.72;100.00
13434;BME280;6789;47.678;9.158;2023-05-08T00:06:46;97043.47;;;14.69;100.00
13434;BME280;6789;47.678;9.158;2023-05-08T00:11:38;97038.75;;;14.71;100.00
13434;BME280;6789;47.678;9.158;2023-05-08T00:16:30;97039.00;;;14.69;100.00
13434;BME280;6789;47.678;9.158;2023-05-08T00:21:22;97035.78;;;14.67;100.00
13434;BME280;6789;47.678;9.158;2023-05-08T00:26:15;97034.69;;;14.63;100.00
13434;BME280;6789;47.678;9.158;2023-05-08T00:31:22;97037.38;;;14.68;100.00
13434;BME280;6789;47.678;9.158;2023-05-08T00:36:14;97029.63;;;14.78;100.00
13434;BME280;6789;47.678;9.158;2023-05-08T00:41:06;97041.75;;;14.79;100.00
13434;BME280;6789;47.678;9.158;2023-05-08T00:46:00;97029.84;;;14.77;100.00
13434;BME280;6789;47.678;9.158;2023-05-08T00:50:53;97036.00;;;14.82;100.00
13434;BME280;6789;47.678;9.158;2023-05-08T00:55:46;97030.78;;;14.87;100.00
13434;BME280;6789;47.678;9.158;2023-05-08T01:00:41;97028.16;;;14.87;100.00
13434;BME280;6789;47.678;9.158;2023-05-08T01:05:35;97022.94;;;14.92;100.00
13434;BME280;6789;47.678;9.158;2023-05-08T01:10:41;97016.09;;;14.91;100.00
13434;BME280;6789;47.678;9.158;2023-05-08T01:15:46;97024.28;;;14.95;100.00
13434;BME280;6789;47.678;9.158;2023-05-08T01:20:50;97027.13;;;14.88;100.00
13434;BME280;6789;47.678;9.158;2023-05-08T01:37:02;97034.13;;;14.99;100.00
13434;BME280;6789;47.678;9.158;2023-05-08T01:42:03;97035.16;;;14.98;100.00
13434;BME280;6789;47.678;9.158;2023-05-08T01:46:57;97024.38;;;14.99;100.00
13434;BME280;6789;47.678;9.158;2023-05-08T01:51:59;97043.34;;;14.97;100.00
13434;BME280;6789;47.678;9.158;2023-05-08T01:56:56;97045.66;;;14.93;100.00
13434;BME280;6789;47.678;9.158;2023-05-08T02:01:55;97045.72;;;14.98;100.00
13434;BME280;6789;47.678;9.158;2023-05-08T02:06:50;97045.41;;;14.95;100.00
13434;BME280;6789;47.678;9.158;2023-05-08T02:11:44;97045.19;;;14.96;100.00
13434;BME280;6789;47.678;9.158;2023-05-08T02:16:40;97038.63;;;14.98;100.00
13434;BME280;6789;47.678;9.158;2023-05-08T02:21:34;97040.69;;;14.97;100.00
13434;BME280;6789;47.678;9.158;2023-05-08T02:26:27;97045.50;;;14.99;100.00
13434;BME280;6789;47.678;9.158;2023-05-08T02:31:20;97056.22;;;14.93;100.00
13434;BME280;6789;47.678;9.158;2023-05-08T02:36:16;97051.19;;;14.92;100.00
13434;BME280;6789;47.678;9.158;2023-05-08T02:41:11;97050.31;;;14.86;100.00
13434;BME280;6789;47.678;9.158;2023-05-08T02:51:52;97052.56;;;14.78;100.00
13434;BME280;6789;47.678;9.158;2023-05-08T03:02:23;97058.69;;;14.78;100.00
13434;BME280;6789;47.678;9.158;2023-05-08T03:07:24;97042.84;;;14.78;100.00
13434;BME280;6789;47.678;9.158;2023-05-08T03:12:23;97044.34;;;14.74;100.00
13434;BME280;6789;47.678;9.158;2023-05-08T03:17:19;97045.47;;;14.78;100.00
13434;BME280;6789;47.678;9.158;2023-05-08T03:22:15;97038.66;;;14.82;100.00
13434;BME280;6789;47.678;9.158;2023-05-08T03:27:09;97039.69;;;14.81;100.00
13434;BME280;6789;47.678;9.158;2023-05-08T03:32:02;97037.06;;;14.81;100.00
13434;BME280;6789;47.678;9.158;2023-05-08T03:36:54;97046.81;;;14.81;100.00
13434;BME280;6789;47.678;9.158;2023-05-08T03:41:46;97044.41;;;14.79;100.00
13434;BME280;6789;47.678;9.158;2023-05-08T03:46:41;97049.88;;;14.73;100.00
13434;BME280;6789;47.678;9.158;2023-05-08T03:51:37;97053.28;;;14.73;100.00
13434;BME280;6789;47.678;9.158;2023-05-08T03:56:30;97050.50;;;14.63;100.00
13434;BME280;6789;47.678;9.158;2023-05-08T04:01:27;97052.38;;;14.63;100.00
13434;BME280;6789;47.678;9.158;2023-05-08T04:12:21;97050.91;;;14.72;100.00
13434;BME280;6789;47.678;9.158;2023-05-08T04:17:41;97054.91;;;14.74;100.00
13434;BME280;6789;47.678;9.158;2023-05-08T04:22:52;97063.13;;;14.78;100.00
13434;BME280;6789;47.678;9.158;2023-05-08T04:28:03;97069.56;;;14.82;100.00
13434;BME280;6789;47.678;9.158;2023-05-08T04:33:12;97065.06;;;14.82;100.00
13434;BME280;6789;47.678;9.158;2023-05-08T04:38:21;97071.94;;;14.83;100.00
13434;BME280;6789;47.678;9.158;2023-05-08T04:43:13;97071.88;;;14.78;100.00
13434;BME280;6789;47.678;9.158;2023-05-08T04:48:21;97074.09;;;14.86;100.00
13434;BME280;6789;47.678;9.158;2023-05-08T04:53:51;97072.59;;;14.90;100.00
13434;BME280;6789;47.678;9.158;2023-05-08T04:59:54;97070.97;;;14.89;100.00
13434;BME280;6789;47.678;9.158;2023-05-08T05:05:01;97078.19;;;14.94;100.00
13434;BME280;6789;47.678;9.158;2023-05-08T05:09:53;97068.97;;;14.96;100.00
13434;BME280;6789;47.678;9.158;2023-05-08T05:14:45;97067.75;;;15.03;100.00
13434;BME280;6789;47.678;9.158;2023-05-08T05:19:37;97071.69;;;15.01;100.00
13434;BME280;6789;47.678;9.158;2023-05-08T05:24:28;97084.38;;;15.04;100.00
13434;BME280;6789;47.678;9.158;2023-05-08T05:29:20;97084.16;;;15.05;100.00
13434;BME280;6789;47.678;9.158;2023-05-08T05:34:12;97086.56;;;15.07;100.00
13434;BME280;6789;47.678;9.158;2023-05-08T05:39:33;97100.06;;;15.10;100.00
13434;BME280;6789;47.678;9.158;2023-05-08T05:44:51;97092.53;;;15.19;100.00
13434;BME280;6789;47.678;9.158;2023-05-08T05:50:19;97095.09;;;15.30;100.00
13434;BME280;6789;47.678;9.158;2023-05-08T06:00:27;97110.78;;;15.37;100.00
13434;BME280;6789;47.678;9.158;2023-05-08T06:05:19;97113.00;;;15.45;100.00
13434;BME280;6789;47.678;9.158;2023-05-08T06:10:11;97113.00;;;15.45;100.00
13434;BME280;6789;47.678;9.158;2023-05-08T06:15:04;97115.13;;;15.48;100.00
13434;BME280;6789;47.678;9.158;2023-05-08T06:30:24;97114.25;;;15.59;100.00
13434;BME280;6789;47.678;9.158;2023-05-08T06:35:31;97122.41;;;15.57;100.00
13434;BME280;6789;47.678;9.158;2023-05-08T06:40:23;97120.69;;;15.68;100.00
13434;BME280;6789;47.678;9.158;2023-05-08T06:45:15;97121.00;;;15.71;100.00
13434;BME280;6789;47.678;9.158;2023-05-08T06:50:22;97123.69;;;15.76;100.00
13434;BME280;6789;47.678;9.158;2023-05-08T06:55:42;97131.63;;;15.76;100.00
13434;BME280;6789;47.678;9.158;2023-05-08T07:00:48;97135.56;;;15.73;100.00
13434;BME280;6789;47.678;9.158;2023-05-08T07:05:56;97131.25;;;15.68;100.00
13434;BME280;6789;47.678;9.158;2023-05-08T07:11:02;97129.75;;;15.72;100.00
13434;BME280;6789;47.678;9.158;2023-05-08T07:16:09;97134.47;;;15.70;100.00
13434;BME280;6789;47.678;9.158;2023-05-08T07:21:19;97130.47;;;15.67;100.00
13434;BME280;6789;47.678;9.158;2023-05-08T07:26:38;97131.94;;;15.79;100.00
13434;BME280;6789;47.678;9.158;2023-05-08T07:31:44;97132.00;;;15.84;100.00
13434;BME280;6789;47.678;9.158;2023-05-08T07:36:53;97138.75;;;15.97;100.00
13434;BME280;6789;47.678;9.158;2023-05-08T07:42:00;97133.03;;;16.05;100.00
13434;BME280;6789;47.678;9.158;2023-05-08T07:46:52;97137.19;;;16.22;100.00
13434;BME280;6789;47.678;9.158;2023-05-08T07:51:59;97136.81;;;16.35;100.00
13434;BME280;6789;47.678;9.158;2023-05-08T07:57:06;97134.78;;;16.42;100.00
13434;BME280;6789;47.678;9.158;2023-05-08T08:02:12;97139.53;;;16.40;100.00
13434;BME280;6789;47.678;9.158;2023-05-08T08:07:21;97136.81;;;16.35;100.00
13434;BME280;6789;47.678;9.158;2023-05-08T08:12:27;97140.50;;;16.34;100.00
13434;BME280;6789;47.678;9.158;2023-05-08T08:17:35;97134.69;;;16.32;100.00
13434;BME280;6789;47.678;9.158;2023-05-08T08:22:42;97137.72;;;16.45;100.00
13434;BME280;6789;47.678;9.158;2023-05-08T08:27:48;97137.25;;;16.48;100.00
13434;BME280;6789;47.678;9.158;2023-05-08T08:32:57;97138.50;;;16.72;100.00
13434;BME280;6789;47.678;9.158;2023-05-08T08:38:06;97133.91;;;16.94;100.00
13434;BME280;6789;47.678;9.158;2023-05-08T08:43:12;97139.88;;;17.11;99.16
13434;BME280;6789;47.678;9.158;2023-05-08T08:48:10;97139.66;;;17.17;99.30
13434;BME280;6789;47.678;9.158;2023-05-08T08:53:25;97151.44;;;17.31;99.42
13434;BME280;6789;47.678;9.158;2023-05-08T08:59:03;97146.47;;;17.45;97.10
13434;BME280;6789;47.678;9.158;2023-05-08T09:04:29;97147.13;;;17.67;94.79
13434;BME280;6789;47.678;9.158;2023-05-08T09:09:43;97149.16;;;18.01;93.17
13434;BME280;6789;47.678;9.158;2023-05-08T09:14:50;97145.00;;;18.35;91.20
13434;BME280;6789;47.678;9.158;2023-05-08T09:19:59;97136.06;;;18.75;89.94
13434;BME280;6789;47.678;9.158;2023-05-08T09:25:14;97140.06;;;19.13;86.66
13434;BME280;6789;47.678;9.158;2023-05-08T09:30:47;97143.97;;;19.45;84.01
13434;BME280;6789;47.678;9.158;2023-05-08T09:35:55;97142.66;;;19.42;84.82
13434;BME280;6789;47.678;9.158;2023-05-08T09:41:13;97152.22;;;19.48;84.63
13434;BME280;6789;47.678;9.158;2023-05-08T09:46:27;97158.38;;;19.34;84.03
13434;BME280;6789;47.678;9.158;2023-05-08T09:51:36;97168.22;;;19.19;84.46
13434;BME280;6789;47.678;9.158;2023-05-08T09:56:44;97153.63;;;19.16;82.86
13434;BME280;6789;47.678;9.158;2023-05-08T10:02:25;97160.00;;;19.25;83.89
13434;BME280;6789;47.678;9.158;2023-05-08T10:07:42;97154.09;;;19.38;83.76
13434;BME280;6789;47.678;9.158;2023-05-08T10:12:50;97165.00;;;19.51;82.01
13434;BME280;6789;47.678;9.158;2023-05-08T10:18:07;97167.91;;;19.60;80.60
13434;BME280;6789;47.678;9.158;2023-05-08T10:23:16;97165.22;;;19.75;80.84
13434;BME280;6789;47.678;9.158;2023-05-08T11:01:37;97128.28;;;21.03;75.42
13434;BME280;6789;47.678;9.158;2023-05-08T11:06:54;97128.84;;;21.28;74.53
13434;BME280;6789;47.678;9.158;2023-05-08T11:12:20;97124.56;;;21.60;74.15
13434;BME280;6789;47.678;9.158;2023-05-08T11:17:27;97120.69;;;21.95;72.46
13434;BME280;6789;47.678;9.158;2023-05-08T11:22:35;97114.13;;;22.24;70.09
13434;BME280;6789;47.678;9.158;2023-05-08T11:28:08;97110.13;;;22.45;69.88
13434;BME280;6789;47.678;9.158;2023-05-08T11:38:34;97105.75;;;22.12;70.96
13434;BME280;6789;47.678;9.158;2023-05-08T11:49:24;97112.78;;;22.82;67.24
13434;BME280;6789;47.678;9.158;2023-05-08T11:54:41;97102.69;;;22.79;66.44
13434;BME280;6789;47.678;9.158;2023-05-08T11:59:51;97099.72;;;22.62;66.74
13434;BME280;6789;47.678;9.158;2023-05-08T12:04:57;97101.56;;;22.80;66.22
13434;BME280;6789;47.678;9.158;2023-05-08T12:10:06;97111.13;;;22.49;67.69
13434;BME280;6789;47.678;9.158;2023-05-08T12:15:14;97103.44;;;22.06;68.02
13434;BME280;6789;47.678;9.158;2023-05-08T12:20:57;97107.00;;;21.55;71.15
13434;BME280;6789;47.678;9.158;2023-05-08T12:25:58;97105.88;;;21.32;72.91
13434;BME280;6789;47.678;9.158;2023-05-08T12:30:55;97104.28;;;21.03;74.07
13434;BME280;6789;47.678;9.158;2023-05-08T12:36:03;97100.78;;;20.74;75.73
13434;BME280;6789;47.678;9.158;2023-05-08T12:41:10;97103.53;;;20.59;76.30
13434;BME280;6789;47.678;9.158;2023-05-08T12:46:04;97109.97;;;19.32;82.83
13434;BME280;6789;47.678;9.158;2023-05-08T12:51:11;97111.34;;;18.90;83.97
13434;BME280;6789;47.678;9.158;2023-05-08T12:56:21;97114.94;;;18.09;88.82
13434;BME280;6789;47.678;9.158;2023-05-08T13:01:27;97118.94;;;18.22;90.86
13434;BME280;6789;47.678;9.158;2023-05-08T13:06:35;97121.00;;;17.95;91.71
13434;BME280;6789;47.678;9.158;2023-05-08T13:11:42;97112.47;;;17.88;92.24
13434;BME280;6789;47.678;9.158;2023-05-08T13:17:02;97115.13;;;17.93;91.88
13434;BME280;6789;47.678;9.158;2023-05-08T13:22:30;97116.75;;;17.94;91.61
13434;BME280;6789;47.678;9.158;2023-05-08T13:27:59;97113.31;;;18.03;91.84
13434;BME280;6789;47.678;9.158;2023-05-08T13:33:23;97110.16;;;17.45;93.78
13434;BME280;6789;47.678;9.158;2023-05-08T13:38:30;97102.78;;;17.57;95.51
13434;BME280;6789;47.678;9.158;2023-05-08T13:43:28;97106.06;;;17.84;94.16
13434;BME280;6789;47.678;9.158;2023-05-08T13:48:34;97100.56;;;18.00;94.45
13434;BME280;6789;47.678;9.158;2023-05-08T13:53:39;97096.78;;;17.87;95.11
13434;BME280;6789;47.678;9.158;2023-05-08T13:58:45;97099.38;;;17.67;96.04
13434;BME280;6789;47.678;9.158;2023-05-08T14:03:53;97095.91;;;17.61;96.86
13434;BME280;6789;47.678;9.158;2023-05-08T14:09:04;97100.72;;;17.74;95.43
13434;BME280;6789;47.678;9.158;2023-05-08T14:14:14;97100.09;;;17.52;95.66
13434;BME280;6789;47.678;9.158;2023-05-08T14:19:22;97104.22;;;17.28;98.70
13434;BME280;6789;47.678;9.158;2023-05-08T14:24:28;97107.78;;;17.08;100.00
13434;BME280;6789;47.678;9.158;2023-05-08T14:29:28;97098.53;;;16.79;100.00
13434;BME280;6789;47.678;9.158;2023-05-08T14:34:35;97089.50;;;16.70;100.00
13434;BME280;6789;47.678;9.158;2023-05-08T14:39:32;97098.13;;;16.92;100.00
13434;BME280;6789;47.678;9.158;2023-05-08T14:44:37;97098.53;;;17.10;100.00
13434;BME280;6789;47.678;9.158;2023-05-08T14:49:43;97106.69;;;17.09;100.00
13434;BME280;6789;47.678;9.158;2023-05-08T14:54:49;97089.72;;;17.05;100.00
13434;BME280;6789;47.678;9.158;2023-05-08T14:59:57;97091.06;;;17.48;100.00
13434;BME280;6789;47.678;9.158;2023-05-08T15:05:04;97083.56;;;17.91;100.00
13434;BME280;6789;47.678;9.158;2023-05-08T15:10:10;97092.91;;;18.19;99.67
13434;BME280;6789;47.678;9.158;2023-05-08T15:15:40;97092.44;;;18.52;97.70
13434;BME280;6789;47.678;9.158;2023-05-08T15:20:57;97089.25;;;18.64;95.96
13434;BME280;6789;47.678;9.158;2023-05-08T15:26:04;97084.75;;;18.70;98.36
13434;BME280;6789;47.678;9.158;2023-05-08T15:31:10;97088.19;;;18.70;98.16
13434;BME280;6789;47.678;9.158;2023-05-08T15:36:19;97095.09;;;19.06;96.32
13434;BME280;6789;47.678;9.158;2023-05-08T15:41:24;97093.00;;;19.18;95.34
13434;BME280;6789;47.678;9.158;2023-05-08T15:46:30;97093.50;;;19.25;95.00
13434;BME280;6789;47.678;9.158;2023-05-08T15:51:36;97090.03;;;19.35;91.09
13434;BME280;6789;47.678;9.158;2023-05-08T15:56:44;97104.88;;;19.50;89.66
13434;BME280;6789;47.678;9.158;2023-05-08T16:01:54;97092.66;;;19.44;87.68
13434;BME280;6789;47.678;9.158;2023-05-08T16:07:01;97080.38;;;19.53;89.70
13434;BME280;6789;47.678;9.158;2023-05-08T16:12:07;97076.53;;;19.84;89.71
13434;BME280;6789;47.678;9.158;2023-05-08T16:17:14;97074.94;;;19.78;86.93
13434;BME280;6789;47.678;9.158;2023-05-08T16:22:21;97082.72;;;19.65;87.17
13434;BME280;6789;47.678;9.158;2023-05-08T16:27:29;97086.38;;;19.84;86.96
13434;BME280;6789;47.678;9.158;2023-05-08T16:32:45;97089.31;;;19.82;88.56
13434;BME280;6789;47.678;9.158;2023-05-08T16:37:53;97094.19;;;19.65;86.95
13434;BME280;6789;47.678;9.158;2023-05-08T16:42:59;97101.38;;;19.60;84.14
13434;BME280;6789;47.678;9.158;2023-05-08T16:48:05;97108.31;;;19.51;84.46
13434;BME280;6789;47.678;9.158;2023-05-08T16:53:12;97098.47;;;19.51;85.35
13434;BME280;6789;47.678;9.158;2023-05-08T16:58:08;97095.31;;;19.44;83.71
13434;BME280;6789;47.678;9.158;2023-05-08T17:03:15;97103.88;;;19.22;85.11
13434;BME280;6789;47.678;9.158;2023-05-08T17:08:20;97107.84;;;19.34;86.71
13434;BME280;6789;47.678;9.158;2023-05-08T17:13:28;97105.44;;;19.37;86.52
13434;BME280;6789;47.678;9.158;2023-05-08T17:18:34;97111.28;;;19.30;86.51
13434;BME280;6789;47.678;9.158;2023-05-08T17:23:42;97116.38;;;19.31;87.85
13434;BME280;6789;47.678;9.158;2023-05-08T17:28:52;97115.81;;;19.19;87.85
13434;BME280;6789;47.678;9.158;2023-05-08T17:33:58;97118.75;;;18.88;89.13
13434;BME280;6789;47.678;9.158;2023-05-08T17:39:04;97118.25;;;18.91;89.58
13434;BME280;6789;47.678;9.158;2023-05-08T17:43:57;97121.16;;;18.79;90.94
13434;BME280;6789;47.678;9.158;2023-05-08T17:49:03;97121.69;;;18.66;91.56
13434;BME280;6789;47.678;9.158;2023-05-08T17:54:11;97122.75;;;18.56;91.95
13434;BME280;6789;47.678;9.158;2023-05-08T17:59:17;97131.78;;;18.45;91.95
13434;BME280;6789;47.678;9.158;2023-05-08T18:04:11;97119.50;;;18.29;93.80
13434;BME280;6789;47.678;9.158;2023-05-08T18:09:16;97131.44;;;18.21;93.50
13434;BME280;6789;47.678;9.158;2023-05-08T18:14:28;97137.50;;;18.12;94.63
13434;BME280;6789;47.678;9.158;2023-05-08T18:19:37;97121.53;;;18.02;96.21
13434;BME280;6789;47.678;9.158;2023-05-08T18:24:30;97127.31;;;17.89;96.78
13434;BME280;6789;47.678;9.158;2023-05-08T18:29:36;97136.81;;;17.70;96.38
13434;BME280;6789;47.678;9.158;2023-05-08T18:35:10;97146.28;;;17.56;96.90
13434;BME280;6789;47.678;9.158;2023-05-08T18:40:17;97151.00;;;17.49;97.61
13434;BME280;6789;47.678;9.158;2023-05-08T18:45:24;97152.53;;;17.40;98.09
13434;BME280;6789;47.678;9.158;2023-05-08T18:51:13;97166.00;;;17.29;98.33
13434;BME280;6789;47.678;9.158;2023-05-08T18:56:13;97156.63;;;17.21;99.08
13434;BME280;6789;47.678;9.158;2023-05-08T19:01:08;97153.97;;;17.21;100.00
13434;BME280;6789;47.678;9.158;2023-05-08T19:06:13;97163.03;;;17.25;100.00
13434;BME280;6789;47.678;9.158;2023-05-08T19:11:19;97162.13;;;17.10;100.00
13434;BME280;6789;47.678;9.158;2023-05-08T19:16:13;97166.75;;;16.93;100.00
13434;BME280;6789;47.678;9.158;2023-05-08T19:21:19;97168.47;;;16.78;100.00
13434;BME280;6789;47.678;9.158;2023-05-08T19:26:12;97156.19;;;16.67;100.00
13434;BME280;6789;47.678;9.158;2023-05-08T19:31:20;97156.38;;;16.55;100.00
13434;BME280;6789;47.678;9.158;2023-05-08T19:36:29;97143.84;;;16.46;100.00
13434;BME280;6789;47.678;9.158;2023-05-08T19:41:35;97141.38;;;16.40;100.00
13434;BME280;6789;47.678;9.158;2023-05-08T19:46:41;97152.22;;;16.38;100.00
13434;BME280;6789;47.678;9.158;2023-05-08T19:51:37;97159.91;;;16.40;100.00
13434;BME280;6789;47.678;9.158;2023-05-08T19:56:31;97153.69;;;16.29;100.00
13434;BME280;6789;47.678;9.158;2023-05-08T20:01:24;97145.88;;;16.39;100.00
13434;BME280;6789;47.678;9.158;2023-05-08T20:06:15;97150.63;;;16.37;100.00
13434;BME280;6789;47.678;9.158;2023-05-08T20:11:09;97145.19;;;16.27;100.00
13434;BME280;6789;47.678;9.158;2023-05-08T20:16:07;97146.41;;;16.20;100.00
13434;BME280;6789;47.678;9.158;2023-05-08T20:21:03;97144.53;;;16.15;100.00
13434;BME280;6789;47.678;9.158;2023-05-08T20:25:56;97137.56;;;16.09;100.00
13434;BME280;6789;47.678;9.158;2023-05-08T20:30:51;97138.56;;;16.03;100.00
13434;BME280;6789;47.678;9.158;2023-05-08T20:35:43;97144.31;;;15.95;100.00
13434;BME280;6789;47.678;9.158;2023-05-08T20:40:49;97142.16;;;15.92;100.00
13434;BME280;6789;47.678;9.158;2023-05-08T20:45:56;97141.66;;;15.95;100.00
13434;BME280;6789;47.678;9.158;2023-05-08T20:51:01;97136.44;;;16.00;100.00
13434;BME280;6789;47.678;9.158;2023-05-08T20:56:03;97124.81;;;16.01;100.00
13434;BME280;6789;47.678;9.158;2023-05-08T21:01:09;97124.75;;;15.96;100.00
13434;BME280;6789;47.678;9.158;2023-05-08T21:06:02;97121.34;;;16.01;100.00
13434;BME280;6789;47.678;9.158;2023-05-08T21:11:08;97121.97;;;15.86;100.00
13434;BME280;6789;47.678;9.158;2023-05-08T21:16:00;97114.97;;;15.75;100.00
13434;BME280;6789;47.678;9.158;2023-05-08T21:21:14;97109.63;;;15.71;100.00
13434;BME280;6789;47.678;9.158;2023-05-08T21:26:07;97100.66;;;15.72;100.00
13434;BME280;6789;47.678;9.158;2023-05-08T21:31:13;97093.19;;;15.69;100.00
13434;BME280;6789;47.678;9.158;2023-05-08T21:36:07;97080.72;;;15.64;100.00
13434;BME280;6789;47.678;9.158;2023-05-08T21:41:07;97085.78;;;15.66;100.00
13434;BME280;6789;47.678;9.158;2023-05-08T21:46:05;97084.22;;;15.70;100.00
13434;BME280;6789;47.678;9.158;2023-05-08T21:50:58;97082.00;;;15.62;100.00
13434;BME280;6789;47.678;9.158;2023-05-08T21:55:57;97075.94;;;15.61;100.00
13434;BME280;6789;47.678;9.158;2023-05-08T22:01:03;97073.03;;;15.63;100.00
13434;BME280;6789;47.678;9.158;2023-05-08T22:05:56;97066.34;;;15.55;100.00
13434;BME280;6789;47.678;9.158;2023-05-08T22:10:49;97061.22;;;15.49;100.00
13434;BME280;6789;47.678;9.158;2023-05-08T22:15:42;97069.09;;;15.44;100.00
13434;BME280;6789;47.678;9.158;2023-05-08T22:20:37;97064.06;;;15.42;100.00
13434;BME280;6789;47.678;9.158;2023-05-08T22:25:30;97059.03;;;15.41;100.00
13434;BME280;6789;47.678;9.158;2023-05-08T22:30:35;97066.25;;;15.50;100.00
13434;BME280;6789;47.678;9.158;2023-05-08T22:35:27;97063.63;;;15.50;100.00
13434;BME280;6789;47.678;9.158;2023-05-08T22:40:20;97062.22;;;15.43;100.00
13434;BME280;6789;47.678;9.158;2023-05-08T22:45:13;97052.94;;;15.40;100.00
13434;BME280;6789;47.678;9.158;2023-05-08T22:50:06;97047.91;;;15.39;100.00
13434;BME280;6789;47.678;9.158;2023-05-08T22:55:01;97036.28;;;15.40;100.00
13434;BME280;6789;47.678;9.158;2023-05-08T23:00:11;97034.69;;;15.39;100.00
13434;BME280;6789;47.678;9.158;2023-05-08T23:05:06;97026.03;;;15.43;100.00
13434;BME280;6789;47.678;9.158;2023-05-08T23:09:59;97018.31;;;15.42;100.00
13434;BME280;6789;47.678;9.158;2023-05-08T23:20:11;97000.06;;;15.40;100.00
13434;BME280;6789;47.678;9.158;2023-05-08T23:36:32;96978.53;;;15.27;100.00
13434;BME280;6789;47.678;9.158;2023-05-08T23:41:24;96970.50;;;15.22;100.00
13434;BME280;6789;47.678;9.158;2023-05-08T23:46:16;96953.53;;;15.18;100.00
13434;BME280;6789;47.678;9.158;2023-05-08T23:51:08;96944.53;;;15.14;100.00
13434;BME280;6789;47.678;9.158;2023-05-08T23:56:00;96948.16;;;15.08;100.00
